sensor_id;sensor_type;location;lat;lon;timestamp;P1;durP1;ratioP1;P2;durP2;ratioP2
68757;SDS011;55747;51.998;4.466;2023-03-16T00:02:06;8.77;;;5.75;;
68757;SDS011;55747;51.998;4.466;2023-03-16T00:04:32;8.40;;;5.60;;
68757;SDS011;55747;51.998;4.466;2023-03-16T00:07:05;8.48;;;5.93;;
68757;SDS011;55747;51.998;4.466;2023-03-16T00:09:31;10.18;;;5.90;;
68757;SDS011;55747;51.998;4.466;2023-03-16T00:11:57;10.15;;;5.88;;
68757;SDS011;55747;51.998;4.466;2023-03-16T00:14:30;8.68;;;5.53;;
68757;SDS011;55747;51.998;4.466;2023-03-16T00:16:56;11.15;;;5.40;;
68757;SDS011;55747;51.998;4.466;2023-03-16T00:19:21;8.70;;;5.20;;
68757;SDS011;55747;51.998;4.466;2023-03-16T00:21:47;8.93;;;6.20;;
68757;SDS011;55747;51.998;4.466;2023-03-16T00:24:16;9.80;;;5.57;;
68757;SDS011;55747;51.998;4.466;2023-03-16T00:26:42;11.52;;;6.05;;
68757;SDS011;55747;51.998;4.466;2023-03-16T00:29:08;8.52;;;5.68;;
68757;SDS011;55747;51.998;4.466;2023-03-16T00:31:34;10.07;;;6.28;;
68757;SDS011;55747;51.998;4.466;2023-03-16T00:33:59;11.30;;;6.15;;
68757;SDS011;55747;51.998;4.466;2023-03-16T00:36:26;9.82;;;5.90;;
68757;SDS011;55747;51.998;4.466;2023-03-16T00:38:52;12.65;;;6.50;;
68757;SDS011;55747;51.998;4.466;2023-03-16T00:41:22;10.18;;;6.40;;
68757;SDS011;55747;51.998;4.466;2023-03-16T00:43:47;10.43;;;5.93;;
68757;SDS011;55747;51.998;4.466;2023-03-16T00:46:14;9.20;;;6.22;;
68757;SDS011;55747;51.998;4.466;2023-03-16T00:48:42;9.85;;;6.10;;
68757;SDS011;55747;51.998;4.466;2023-03-16T00:51:11;8.13;;;6.00;;
68757;SDS011;55747;51.998;4.466;2023-03-16T00:53:40;10.90;;;6.20;;
68757;SDS011;55747;51.998;4.466;2023-03-16T00:56:07;11.55;;;6.50;;
68757;SDS011;55747;51.998;4.466;2023-03-16T00:58:35;8.20;;;6.30;;
68757;SDS011;55747;51.998;4.466;2023-03-16T01:01:06;8.88;;;6.10;;
68757;SDS011;55747;51.998;4.466;2023-03-16T01:03:40;10.82;;;5.97;;
68757;SDS011;55747;51.998;4.466;2023-03-16T01:06:05;11.02;;;6.20;;
68757;SDS011;55747;51.998;4.466;2023-03-16T01:08:34;10.77;;;6.60;;
68757;SDS011;55747;51.998;4.466;2023-03-16T01:11:01;8.82;;;6.65;;
68757;SDS011;55747;51.998;4.466;2023-03-16T01:13:28;8.43;;;6.32;;
68757;SDS011;55747;51.998;4.466;2023-03-16T01:15:58;9.88;;;6.53;;
68757;SDS011;55747;51.998;4.466;2023-03-16T01:18:27;11.00;;;6.65;;
68757;SDS011;55747;51.998;4.466;2023-03-16T01:20:52;8.77;;;6.05;;
68757;SDS011;55747;51.998;4.466;2023-03-16T01:23:18;10.65;;;7.00;;
68757;SDS011;55747;51.998;4.466;2023-03-16T01:25:44;11.32;;;6.57;;
68757;SDS011;55747;51.998;4.466;2023-03-16T01:28:20;10.73;;;6.10;;
68757;SDS011;55747;51.998;4.466;2023-03-16T01:30:48;10.63;;;6.30;;
68757;SDS011;55747;51.998;4.466;2023-03-16T01:33:18;14.38;;;6.75;;
68757;SDS011;55747;51.998;4.466;2023-03-16T01:36:19;9.68;;;6.35;;
68757;SDS011;55747;51.998;4.466;2023-03-16T01:38:41;11.00;;;6.82;;
68757;SDS011;55747;51.998;4.466;2023-03-16T01:41:07;9.15;;;6.38;;
68757;SDS011;55747;51.998;4.466;2023-03-16T01:43:33;9.77;;;6.57;;
68757;SDS011;55747;51.998;4.466;2023-03-16T01:48:33;9.95;;;6.30;;
68757;SDS011;55747;51.998;4.466;2023-03-16T01:51:08;9.45;;;6.40;;
68757;SDS011;55747;51.998;4.466;2023-03-16T01:53:39;9.73;;;6.40;;
68757;SDS011;55747;51.998;4.466;2023-03-16T01:56:09;8.93;;;6.45;;
68757;SDS011;55747;51.998;4.466;2023-03-16T01:58:37;8.77;;;6.47;;
68757;SDS011;55747;51.998;4.466;2023-03-16T02:01:04;9.80;;;6.30;;
68757;SDS011;55747;51.998;4.466;2023-03-16T02:03:29;12.13;;;6.75;;
68757;SDS011;55747;51.998;4.466;2023-03-16T02:06:00;11.93;;;6.72;;
68757;SDS011;55747;51.998;4.466;2023-03-16T02:08:30;9.30;;;6.32;;
68757;SDS011;55747;51.998;4.466;2023-03-16T02:10:56;11.23;;;6.60;;
68757;SDS011;55747;51.998;4.466;2023-03-16T02:13:21;11.57;;;6.85;;
68757;SDS011;55747;51.998;4.466;2023-03-16T02:15:49;11.50;;;7.03;;
68757;SDS011;55747;51.998;4.466;2023-03-16T02:18:16;9.98;;;7.30;;
68757;SDS011;55747;51.998;4.466;2023-03-16T02:20:42;10.50;;;6.93;;
68757;SDS011;55747;51.998;4.466;2023-03-16T02:23:12;14.38;;;7.22;;
68757;SDS011;55747;51.998;4.466;2023-03-16T02:34:16;11.43;;;7.07;;
68757;SDS011;55747;51.998;4.466;2023-03-16T02:36:43;10.90;;;7.80;;
68757;SDS011;55747;51.998;4.466;2023-03-16T02:39:10;13.38;;;7.30;;
68757;SDS011;55747;51.998;4.466;2023-03-16T02:41:36;12.48;;;7.32;;
68757;SDS011;55747;51.998;4.466;2023-03-16T02:44:06;13.68;;;7.03;;
68757;SDS011;55747;51.998;4.466;2023-03-16T02:46:58;11.38;;;7.28;;
68757;SDS011;55747;51.998;4.466;2023-03-16T02:51:52;12.23;;;7.60;;
68757;SDS011;55747;51.998;4.466;2023-03-16T02:54:18;10.30;;;7.07;;
68757;SDS011;55747;51.998;4.466;2023-03-16T02:56:43;9.30;;;7.32;;
68757;SDS011;55747;51.998;4.466;2023-03-16T02:59:09;11.82;;;7.55;;
68757;SDS011;55747;51.998;4.466;2023-03-16T03:01:34;10.48;;;6.88;;
68757;SDS011;55747;51.998;4.466;2023-03-16T03:04:01;13.50;;;7.90;;
68757;SDS011;55747;51.998;4.466;2023-03-16T03:06:27;13.07;;;7.40;;
68757;SDS011;55747;51.998;4.466;2023-03-16T03:08:54;11.43;;;7.38;;
68757;SDS011;55747;51.998;4.466;2023-03-16T03:11:20;13.38;;;7.38;;
68757;SDS011;55747;51.998;4.466;2023-03-16T03:13:45;11.90;;;7.03;;
68757;SDS011;55747;51.998;4.466;2023-03-16T03:16:12;14.27;;;7.57;;
68757;SDS011;55747;51.998;4.466;2023-03-16T03:18:38;13.13;;;7.25;;
68757;SDS011;55747;51.998;4.466;2023-03-16T03:21:03;12.77;;;7.80;;
68757;SDS011;55747;51.998;4.466;2023-03-16T03:23:29;9.60;;;7.13;;
68757;SDS011;55747;51.998;4.466;2023-03-16T03:25:58;10.05;;;6.57;;
68757;SDS011;55747;51.998;4.466;2023-03-16T03:28:24;11.07;;;6.85;;
68757;SDS011;55747;51.998;4.466;2023-03-16T03:30:49;11.38;;;7.13;;
68757;SDS011;55747;51.998;4.466;2023-03-16T03:33:15;12.13;;;7.00;;
68757;SDS011;55747;51.998;4.466;2023-03-16T03:35:42;11.75;;;7.18;;
68757;SDS011;55747;51.998;4.466;2023-03-16T03:38:07;11.05;;;6.95;;
68757;SDS011;55747;51.998;4.466;2023-03-16T03:40:35;12.05;;;7.40;;
68757;SDS011;55747;51.998;4.466;2023-03-16T03:43:01;10.20;;;5.93;;
68757;SDS011;55747;51.998;4.466;2023-03-16T03:45:27;10.77;;;6.28;;
68757;SDS011;55747;51.998;4.466;2023-03-16T03:47:52;10.20;;;6.25;;
68757;SDS011;55747;51.998;4.466;2023-03-16T03:50:21;9.55;;;6.70;;
68757;SDS011;55747;51.998;4.466;2023-03-16T03:52:46;10.15;;;6.43;;
68757;SDS011;55747;51.998;4.466;2023-03-16T03:55:12;9.02;;;5.82;;
68757;SDS011;55747;51.998;4.466;2023-03-16T03:57:37;11.07;;;5.80;;
68757;SDS011;55747;51.998;4.466;2023-03-16T04:00:04;11.98;;;6.05;;
68757;SDS011;55747;51.998;4.466;2023-03-16T04:02:35;8.68;;;5.85;;
68757;SDS011;55747;51.998;4.466;2023-03-16T04:05:02;10.90;;;6.20;;
68757;SDS011;55747;51.998;4.466;2023-03-16T04:07:27;9.90;;;5.82;;
68757;SDS011;55747;51.998;4.466;2023-03-16T04:09:52;10.57;;;5.88;;
68757;SDS011;55747;51.998;4.466;2023-03-16T04:12:18;11.57;;;6.40;;
68757;SDS011;55747;51.998;4.466;2023-03-16T04:14:43;9.80;;;5.68;;
68757;SDS011;55747;51.998;4.466;2023-03-16T04:17:08;11.30;;;4.80;;
68757;SDS011;55747;51.998;4.466;2023-03-16T04:19:34;8.60;;;5.00;;
68757;SDS011;55747;51.998;4.466;2023-03-16T04:21:59;10.05;;;5.05;;
68757;SDS011;55747;51.998;4.466;2023-03-16T04:24:24;14.60;;;5.32;;
68757;SDS011;55747;51.998;4.466;2023-03-16T04:26:50;7.00;;;4.75;;
68757;SDS011;55747;51.998;4.466;2023-03-16T04:29:15;9.23;;;5.22;;
68757;SDS011;55747;51.998;4.466;2023-03-16T04:31:44;8.32;;;4.90;;
68757;SDS011;55747;51.998;4.466;2023-03-16T04:34:09;9.32;;;5.32;;
68757;SDS011;55747;51.998;4.466;2023-03-16T04:36:36;9.13;;;5.15;;
68757;SDS011;55747;51.998;4.466;2023-03-16T04:39:03;8.98;;;5.25;;
68757;SDS011;55747;51.998;4.466;2023-03-16T04:41:29;8.45;;;4.75;;
68757;SDS011;55747;51.998;4.466;2023-03-16T04:43:55;11.63;;;5.15;;
68757;SDS011;55747;51.998;4.466;2023-03-16T04:46:21;9.73;;;4.43;;
68757;SDS011;55747;51.998;4.466;2023-03-16T04:48:47;6.82;;;4.00;;
68757;SDS011;55747;51.998;4.466;2023-03-16T04:51:13;7.25;;;4.07;;
68757;SDS011;55747;51.998;4.466;2023-03-16T04:53:38;10.07;;;4.30;;
68757;SDS011;55747;51.998;4.466;2023-03-16T04:56:04;6.68;;;4.05;;
68757;SDS011;55747;51.998;4.466;2023-03-16T04:58:31;7.78;;;4.15;;
68757;SDS011;55747;51.998;4.466;2023-03-16T05:00:56;4.68;;;3.38;;
68757;SDS011;55747;51.998;4.466;2023-03-16T05:03:22;10.13;;;4.28;;
68757;SDS011;55747;51.998;4.466;2023-03-16T05:05:47;7.78;;;3.47;;
68757;SDS011;55747;51.998;4.466;2023-03-16T05:08:14;5.57;;;3.35;;
68757;SDS011;55747;51.998;4.466;2023-03-16T05:10:39;8.20;;;3.35;;
68757;SDS011;55747;51.998;4.466;2023-03-16T05:13:05;6.15;;;3.45;;
68757;SDS011;55747;51.998;4.466;2023-03-16T05:15:31;10.68;;;3.50;;
68757;SDS011;55747;51.998;4.466;2023-03-16T05:17:56;7.20;;;3.75;;
68757;SDS011;55747;51.998;4.466;2023-03-16T05:20:22;9.50;;;3.97;;
68757;SDS011;55747;51.998;4.466;2023-03-16T05:22:48;11.32;;;3.47;;
68757;SDS011;55747;51.998;4.466;2023-03-16T05:25:14;7.88;;;3.70;;
68757;SDS011;55747;51.998;4.466;2023-03-16T05:27:41;7.13;;;3.90;;
68757;SDS011;55747;51.998;4.466;2023-03-16T05:30:08;6.95;;;4.20;;
68757;SDS011;55747;51.998;4.466;2023-03-16T05:32:35;8.50;;;4.47;;
68757;SDS011;55747;51.998;4.466;2023-03-16T05:35:01;9.68;;;4.28;;
68757;SDS011;55747;51.998;4.466;2023-03-16T05:37:27;10.57;;;4.80;;
68757;SDS011;55747;51.998;4.466;2023-03-16T05:39:52;10.57;;;4.90;;
68757;SDS011;55747;51.998;4.466;2023-03-16T05:42:21;8.23;;;4.13;;
68757;SDS011;55747;51.998;4.466;2023-03-16T05:44:47;8.50;;;4.45;;
68757;SDS011;55747;51.998;4.466;2023-03-16T05:47:13;7.90;;;3.90;;
68757;SDS011;55747;51.998;4.466;2023-03-16T05:49:38;9.98;;;4.10;;
68757;SDS011;55747;51.998;4.466;2023-03-16T05:52:03;10.32;;;4.00;;
68757;SDS011;55747;51.998;4.466;2023-03-16T05:54:29;9.07;;;4.47;;
68757;SDS011;55747;51.998;4.466;2023-03-16T05:56:54;9.48;;;4.75;;
68757;SDS011;55747;51.998;4.466;2023-03-16T05:59:19;7.00;;;3.90;;
68757;SDS011;55747;51.998;4.466;2023-03-16T06:01:45;6.72;;;4.00;;
68757;SDS011;55747;51.998;4.466;2023-03-16T06:04:10;7.95;;;3.60;;
68757;SDS011;55747;51.998;4.466;2023-03-16T06:06:36;7.15;;;3.50;;
68757;SDS011;55747;51.998;4.466;2023-03-16T06:09:02;7.45;;;3.80;;
68757;SDS011;55747;51.998;4.466;2023-03-16T06:11:27;10.73;;;3.97;;
68757;SDS011;55747;51.998;4.466;2023-03-16T06:13:52;9.27;;;3.72;;
68757;SDS011;55747;51.998;4.466;2023-03-16T06:16:18;8.32;;;4.18;;
68757;SDS011;55747;51.998;4.466;2023-03-16T06:18:43;5.43;;;3.60;;
68757;SDS011;55747;51.998;4.466;2023-03-16T06:21:08;11.43;;;4.65;;
68757;SDS011;55747;51.998;4.466;2023-03-16T06:23:34;9.23;;;4.80;;
68757;SDS011;55747;51.998;4.466;2023-03-16T06:25:59;10.70;;;4.43;;
68757;SDS011;55747;51.998;4.466;2023-03-16T06:28:25;9.00;;;4.88;;
68757;SDS011;55747;51.998;4.466;2023-03-16T06:30:54;10.30;;;4.72;;
68757;SDS011;55747;51.998;4.466;2023-03-16T06:33:21;10.80;;;4.30;;
68757;SDS011;55747;51.998;4.466;2023-03-16T06:35:47;7.05;;;4.50;;
68757;SDS011;55747;51.998;4.466;2023-03-16T06:38:13;7.93;;;4.28;;
68757;SDS011;55747;51.998;4.466;2023-03-16T06:40:40;8.57;;;4.15;;
68757;SDS011;55747;51.998;4.466;2023-03-16T06:43:07;10.38;;;4.65;;
68757;SDS011;55747;51.998;4.466;2023-03-16T06:45:33;12.85;;;4.85;;
68757;SDS011;55747;51.998;4.466;2023-03-16T06:47:58;12.20;;;5.03;;
68757;SDS011;55747;51.998;4.466;2023-03-16T06:50:24;7.72;;;4.32;;
68757;SDS011;55747;51.998;4.466;2023-03-16T06:52:49;10.95;;;4.38;;
68757;SDS011;55747;51.998;4.466;2023-03-16T06:55:15;13.20;;;4.95;;
68757;SDS011;55747;51.998;4.466;2023-03-16T06:57:40;10.80;;;4.53;;
68757;SDS011;55747;51.998;4.466;2023-03-16T07:00:06;10.20;;;4.07;;
68757;SDS011;55747;51.998;4.466;2023-03-16T07:02:33;10.05;;;4.18;;
68757;SDS011;55747;51.998;4.466;2023-03-16T07:04:59;10.73;;;4.93;;
68757;SDS011;55747;51.998;4.466;2023-03-16T07:07:25;9.13;;;4.30;;
68757;SDS011;55747;51.998;4.466;2023-03-16T07:09:51;8.65;;;4.32;;
68757;SDS011;55747;51.998;4.466;2023-03-16T07:12:16;8.63;;;4.30;;
68757;SDS011;55747;51.998;4.466;2023-03-16T07:14:42;9.40;;;4.38;;
68757;SDS011;55747;51.998;4.466;2023-03-16T07:17:07;8.15;;;4.25;;
68757;SDS011;55747;51.998;4.466;2023-03-16T07:19:33;10.50;;;4.13;;
68757;SDS011;55747;51.998;4.466;2023-03-16T07:21:58;8.18;;;3.92;;
68757;SDS011;55747;51.998;4.466;2023-03-16T07:24:23;7.28;;;3.70;;
68757;SDS011;55747;51.998;4.466;2023-03-16T07:26:48;9.60;;;3.78;;
68757;SDS011;55747;51.998;4.466;2023-03-16T07:29:14;9.65;;;3.63;;
68757;SDS011;55747;51.998;4.466;2023-03-16T07:31:41;8.88;;;3.70;;
68757;SDS011;55747;51.998;4.466;2023-03-16T07:34:07;7.65;;;3.50;;
68757;SDS011;55747;51.998;4.466;2023-03-16T07:36:32;6.75;;;3.50;;
68757;SDS011;55747;51.998;4.466;2023-03-16T07:38:57;7.10;;;3.55;;
68757;SDS011;55747;51.998;4.466;2023-03-16T07:41:23;11.73;;;3.72;;
68757;SDS011;55747;51.998;4.466;2023-03-16T07:43:49;7.45;;;3.67;;
68757;SDS011;55747;51.998;4.466;2023-03-16T07:46:15;10.77;;;3.35;;
68757;SDS011;55747;51.998;4.466;2023-03-16T07:48:42;6.60;;;3.22;;
68757;SDS011;55747;51.998;4.466;2023-03-16T07:51:09;6.50;;;3.25;;
68757;SDS011;55747;51.998;4.466;2023-03-16T07:53:36;4.65;;;2.85;;
68757;SDS011;55747;51.998;4.466;2023-03-16T07:56:01;6.68;;;3.05;;
68757;SDS011;55747;51.998;4.466;2023-03-16T07:58:27;6.80;;;3.40;;
68757;SDS011;55747;51.998;4.466;2023-03-16T08:00:55;5.45;;;3.00;;
68757;SDS011;55747;51.998;4.466;2023-03-16T08:03:26;6.43;;;2.42;;
68757;SDS011;55747;51.998;4.466;2023-03-16T08:05:55;5.97;;;2.70;;
68757;SDS011;55747;51.998;4.466;2023-03-16T08:08:21;5.28;;;2.38;;
68757;SDS011;55747;51.998;4.466;2023-03-16T08:10:49;7.88;;;3.00;;
68757;SDS011;55747;51.998;4.466;2023-03-16T08:13:19;5.18;;;2.85;;
68757;SDS011;55747;51.998;4.466;2023-03-16T08:15:45;5.43;;;2.60;;
68757;SDS011;55747;51.998;4.466;2023-03-16T08:18:19;8.02;;;2.55;;
68757;SDS011;55747;51.998;4.466;2023-03-16T08:20:47;6.50;;;2.50;;
68757;SDS011;55747;51.998;4.466;2023-03-16T08:23:13;6.90;;;2.35;;
68757;SDS011;55747;51.998;4.466;2023-03-16T08:25:39;7.13;;;2.40;;
68757;SDS011;55747;51.998;4.466;2023-03-16T08:28:05;4.50;;;2.53;;
68757;SDS011;55747;51.998;4.466;2023-03-16T08:30:32;6.18;;;2.70;;
68757;SDS011;55747;51.998;4.466;2023-03-16T08:32:59;4.43;;;2.20;;
68757;SDS011;55747;51.998;4.466;2023-03-16T08:35:25;7.00;;;2.30;;
68757;SDS011;55747;51.998;4.466;2023-03-16T08:37:53;5.32;;;2.50;;
68757;SDS011;55747;51.998;4.466;2023-03-16T08:40:18;5.15;;;2.53;;
68757;SDS011;55747;51.998;4.466;2023-03-16T08:42:46;9.70;;;2.47;;
68757;SDS011;55747;51.998;4.466;2023-03-16T08:45:14;5.53;;;2.40;;
68757;SDS011;55747;51.998;4.466;2023-03-16T08:47:41;6.47;;;2.15;;
68757;SDS011;55747;51.998;4.466;2023-03-16T08:50:08;4.40;;;2.42;;
68757;SDS011;55747;51.998;4.466;2023-03-16T08:52:35;4.72;;;2.30;;
68757;SDS011;55747;51.998;4.466;2023-03-16T08:55:02;3.63;;;2.28;;
68757;SDS011;55747;51.998;4.466;2023-03-16T08:57:29;5.05;;;2.50;;
68757;SDS011;55747;51.998;4.466;2023-03-16T08:59:58;6.57;;;2.40;;
68757;SDS011;55747;51.998;4.466;2023-03-16T09:02:32;6.78;;;2.33;;
68757;SDS011;55747;51.998;4.466;2023-03-16T09:05:02;7.22;;;2.13;;
68757;SDS011;55747;51.998;4.466;2023-03-16T09:07:29;5.07;;;2.53;;
68757;SDS011;55747;51.998;4.466;2023-03-16T09:09:54;4.70;;;2.30;;
68757;SDS011;55747;51.998;4.466;2023-03-16T09:12:19;5.68;;;2.35;;
68757;SDS011;55747;51.998;4.466;2023-03-16T09:14:46;5.15;;;2.50;;
68757;SDS011;55747;51.998;4.466;2023-03-16T09:17:13;5.25;;;2.55;;
68757;SDS011;55747;51.998;4.466;2023-03-16T09:19:38;6.13;;;2.17;;
68757;SDS011;55747;51.998;4.466;2023-03-16T09:22:04;5.22;;;2.22;;
68757;SDS011;55747;51.998;4.466;2023-03-16T09:24:30;5.72;;;2.38;;
68757;SDS011;55747;51.998;4.466;2023-03-16T09:26:58;8.20;;;2.20;;
68757;SDS011;55747;51.998;4.466;2023-03-16T09:29:23;6.47;;;2.10;;
68757;SDS011;55747;51.998;4.466;2023-03-16T09:31:49;4.25;;;2.40;;
68757;SDS011;55747;51.998;4.466;2023-03-16T09:34:14;5.28;;;2.90;;
68757;SDS011;55747;51.998;4.466;2023-03-16T09:36:40;4.70;;;2.17;;
68757;SDS011;55747;51.998;4.466;2023-03-16T09:39:05;4.00;;;2.00;;
68757;SDS011;55747;51.998;4.466;2023-03-16T09:42:16;3.80;;;2.00;;
68757;SDS011;55747;51.998;4.466;2023-03-16T09:47:30;5.43;;;2.05;;
68757;SDS011;55747;51.998;4.466;2023-03-16T09:50:10;4.93;;;2.40;;
68757;SDS011;55747;51.998;4.466;2023-03-16T09:53:02;4.57;;;2.30;;
68757;SDS011;55747;51.998;4.466;2023-03-16T09:55:50;5.20;;;2.05;;
68757;SDS011;55747;51.998;4.466;2023-03-16T09:58:24;3.72;;;2.00;;
68757;SDS011;55747;51.998;4.466;2023-03-16T10:01:05;8.32;;;2.10;;
68757;SDS011;55747;51.998;4.466;2023-03-16T10:06:25;3.80;;;1.90;;
68757;SDS011;55747;51.998;4.466;2023-03-16T10:09:13;6.18;;;2.10;;
68757;SDS011;55747;51.998;4.466;2023-03-16T10:11:48;4.07;;;1.98;;
68757;SDS011;55747;51.998;4.466;2023-03-16T10:14:39;2.88;;;1.90;;
68757;SDS011;55747;51.998;4.466;2023-03-16T10:17:17;6.53;;;2.00;;
68757;SDS011;55747;51.998;4.466;2023-03-16T10:19:53;5.15;;;2.00;;
68757;SDS011;55747;51.998;4.466;2023-03-16T10:22:25;4.18;;;1.83;;
68757;SDS011;55747;51.998;4.466;2023-03-16T10:25:03;7.38;;;2.30;;
68757;SDS011;55747;51.998;4.466;2023-03-16T10:27:32;5.47;;;2.00;;
68757;SDS011;55747;51.998;4.466;2023-03-16T10:30:01;6.20;;;2.55;;
68757;SDS011;55747;51.998;4.466;2023-03-16T10:32:30;4.72;;;2.40;;
68757;SDS011;55747;51.998;4.466;2023-03-16T10:35:00;3.65;;;1.98;;
68757;SDS011;55747;51.998;4.466;2023-03-16T10:37:30;3.80;;;2.08;;
68757;SDS011;55747;51.998;4.466;2023-03-16T10:39:56;7.93;;;2.28;;
68757;SDS011;55747;51.998;4.466;2023-03-16T10:42:24;7.50;;;2.38;;
68757;SDS011;55747;51.998;4.466;2023-03-16T10:44:55;6.50;;;2.25;;
68757;SDS011;55747;51.998;4.466;2023-03-16T10:47:23;4.88;;;2.22;;
68757;SDS011;55747;51.998;4.466;2023-03-16T10:49:52;4.45;;;2.00;;
68757;SDS011;55747;51.998;4.466;2023-03-16T10:52:19;6.63;;;2.15;;
68757;SDS011;55747;51.998;4.466;2023-03-16T10:55:06;4.50;;;2.07;;
68757;SDS011;55747;51.998;4.466;2023-03-16T10:57:36;4.80;;;2.28;;
68757;SDS011;55747;51.998;4.466;2023-03-16T11:02:35;4.13;;;1.90;;
68757;SDS011;55747;51.998;4.466;2023-03-16T11:05:10;4.57;;;2.33;;
68757;SDS011;55747;51.998;4.466;2023-03-16T11:07:45;5.43;;;2.28;;
68757;SDS011;55747;51.998;4.466;2023-03-16T11:10:23;6.60;;;2.20;;
68757;SDS011;55747;51.998;4.466;2023-03-16T11:12:52;5.50;;;2.30;;
68757;SDS011;55747;51.998;4.466;2023-03-16T11:15:19;5.10;;;2.20;;
68757;SDS011;55747;51.998;4.466;2023-03-16T11:17:46;4.75;;;1.92;;
68757;SDS011;55747;51.998;4.466;2023-03-16T11:20:16;8.00;;;2.20;;
68757;SDS011;55747;51.998;4.466;2023-03-16T11:22:47;4.60;;;2.00;;
68757;SDS011;55747;51.998;4.466;2023-03-16T11:25:14;4.30;;;2.20;;
68757;SDS011;55747;51.998;4.466;2023-03-16T11:30:38;5.25;;;2.15;;
68757;SDS011;55747;51.998;4.466;2023-03-16T11:33:07;4.72;;;2.03;;
68757;SDS011;55747;51.998;4.466;2023-03-16T11:38:13;6.53;;;2.27;;
68757;SDS011;55747;51.998;4.466;2023-03-16T11:49:05;5.15;;;1.92;;
68757;SDS011;55747;51.998;4.466;2023-03-16T12:00:14;4.72;;;1.30;;
68757;SDS011;55747;51.998;4.466;2023-03-16T12:13:59;6.47;;;1.52;;
68757;SDS011;55747;51.998;4.466;2023-03-16T12:19:36;4.07;;;1.35;;
68757;SDS011;55747;51.998;4.466;2023-03-16T12:27:54;5.50;;;1.70;;
68757;SDS011;55747;51.998;4.466;2023-03-16T12:30:35;7.90;;;1.92;;
68757;SDS011;55747;51.998;4.466;2023-03-16T12:33:05;5.85;;;1.80;;
68757;SDS011;55747;51.998;4.466;2023-03-16T12:38:35;4.78;;;1.50;;
68757;SDS011;55747;51.998;4.466;2023-03-16T12:49:25;6.38;;;1.40;;
68757;SDS011;55747;51.998;4.466;2023-03-16T12:52:06;3.35;;;1.42;;
68757;SDS011;55747;51.998;4.466;2023-03-16T12:54:32;5.72;;;1.50;;
68757;SDS011;55747;51.998;4.466;2023-03-16T12:57:00;5.28;;;1.60;;
68757;SDS011;55747;51.998;4.466;2023-03-16T12:59:38;5.70;;;1.80;;
68757;SDS011;55747;51.998;4.466;2023-03-16T13:02:08;5.68;;;1.60;;
68757;SDS011;55747;51.998;4.466;2023-03-16T13:04:39;7.20;;;1.88;;
68757;SDS011;55747;51.998;4.466;2023-03-16T13:07:07;5.13;;;1.50;;
68757;SDS011;55747;51.998;4.466;2023-03-16T13:09:45;4.70;;;1.48;;
68757;SDS011;55747;51.998;4.466;2023-03-16T13:12:23;4.95;;;1.70;;
68757;SDS011;55747;51.998;4.466;2023-03-16T13:14:54;7.03;;;1.67;;
68757;SDS011;55747;51.998;4.466;2023-03-16T13:17:25;7.88;;;1.55;;
68757;SDS011;55747;51.998;4.466;2023-03-16T13:22:25;7.70;;;1.33;;
68757;SDS011;55747;51.998;4.466;2023-03-16T13:25:12;2.65;;;1.17;;
68757;SDS011;55747;51.998;4.466;2023-03-16T13:28:04;5.15;;;1.60;;
68757;SDS011;55747;51.998;4.466;2023-03-16T13:30:45;6.43;;;1.45;;
68757;SDS011;55747;51.998;4.466;2023-03-16T13:36:00;5.65;;;1.45;;
68757;SDS011;55747;51.998;4.466;2023-03-16T13:38:29;5.95;;;1.40;;
68757;SDS011;55747;51.998;4.466;2023-03-16T13:41:00;4.75;;;1.35;;
68757;SDS011;55747;51.998;4.466;2023-03-16T13:43:28;2.45;;;1.33;;
68757;SDS011;55747;51.998;4.466;2023-03-16T13:45:56;3.22;;;1.30;;
68757;SDS011;55747;51.998;4.466;2023-03-16T13:48:23;5.05;;;1.30;;
68757;SDS011;55747;51.998;4.466;2023-03-16T13:50:53;4.55;;;1.27;;
68757;SDS011;55747;51.998;4.466;2023-03-16T13:53:27;9.15;;;1.50;;
68757;SDS011;55747;51.998;4.466;2023-03-16T13:58:29;5.80;;;1.40;;
68757;SDS011;55747;51.998;4.466;2023-03-16T14:00:58;3.47;;;1.48;;
68757;SDS011;55747;51.998;4.466;2023-03-16T14:03:30;5.43;;;1.45;;
68757;SDS011;55747;51.998;4.466;2023-03-16T14:06:02;6.07;;;1.50;;
68757;SDS011;55747;51.998;4.466;2023-03-16T14:08:29;3.33;;;1.20;;
68757;SDS011;55747;51.998;4.466;2023-03-16T14:10:55;7.25;;;1.60;;
68757;SDS011;55747;51.998;4.466;2023-03-16T14:13:23;7.25;;;1.70;;
68757;SDS011;55747;51.998;4.466;2023-03-16T14:15:52;4.97;;;1.30;;
68757;SDS011;55747;51.998;4.466;2023-03-16T14:18:21;4.03;;;1.42;;
68757;SDS011;55747;51.998;4.466;2023-03-16T14:20:51;3.80;;;1.13;;
68757;SDS011;55747;51.998;4.466;2023-03-16T14:23:20;2.33;;;1.40;;
68757;SDS011;55747;51.998;4.466;2023-03-16T14:25:52;9.23;;;1.15;;
68757;SDS011;55747;51.998;4.466;2023-03-16T14:28:19;4.25;;;1.20;;
68757;SDS011;55747;51.998;4.466;2023-03-16T14:30:51;3.45;;;1.30;;
68757;SDS011;55747;51.998;4.466;2023-03-16T14:33:40;4.63;;;1.40;;
68757;SDS011;55747;51.998;4.466;2023-03-16T14:36:11;7.05;;;1.27;;
68757;SDS011;55747;51.998;4.466;2023-03-16T14:38:42;3.00;;;1.17;;
68757;SDS011;55747;51.998;4.466;2023-03-16T14:43:59;2.90;;;1.13;;
68757;SDS011;55747;51.998;4.466;2023-03-16T14:46:26;3.10;;;1.20;;
68757;SDS011;55747;51.998;4.466;2023-03-16T14:49:00;4.10;;;1.30;;
68757;SDS011;55747;51.998;4.466;2023-03-16T14:51:30;3.70;;;1.20;;
68757;SDS011;55747;51.998;4.466;2023-03-16T14:53:56;3.78;;;1.10;;
68757;SDS011;55747;51.998;4.466;2023-03-16T14:56:21;4.25;;;1.23;;
68757;SDS011;55747;51.998;4.466;2023-03-16T14:58:56;4.70;;;1.10;;
68757;SDS011;55747;51.998;4.466;2023-03-16T15:01:21;7.00;;;1.40;;
68757;SDS011;55747;51.998;4.466;2023-03-16T15:03:47;4.47;;;1.20;;
68757;SDS011;55747;51.998;4.466;2023-03-16T15:06:12;4.00;;;1.10;;
68757;SDS011;55747;51.998;4.466;2023-03-16T15:08:38;3.22;;;1.20;;
68757;SDS011;55747;51.998;4.466;2023-03-16T15:11:09;6.28;;;1.55;;
68757;SDS011;55747;51.998;4.466;2023-03-16T15:13:34;4.95;;;1.17;;
68757;SDS011;55747;51.998;4.466;2023-03-16T15:16:08;2.70;;;1.23;;
68757;SDS011;55747;51.998;4.466;2023-03-16T15:18:35;3.60;;;1.40;;
68757;SDS011;55747;51.998;4.466;2023-03-16T15:21:03;5.35;;;1.70;;
68757;SDS011;55747;51.998;4.466;2023-03-16T15:23:34;2.90;;;1.35;;
68757;SDS011;55747;51.998;4.466;2023-03-16T15:25:59;7.20;;;1.60;;
68757;SDS011;55747;51.998;4.466;2023-03-16T15:28:26;2.95;;;1.30;;
68757;SDS011;55747;51.998;4.466;2023-03-16T15:30:54;4.45;;;1.27;;
68757;SDS011;55747;51.998;4.466;2023-03-16T15:33:21;3.42;;;1.30;;
68757;SDS011;55747;51.998;4.466;2023-03-16T15:35:47;3.92;;;1.38;;
68757;SDS011;55747;51.998;4.466;2023-03-16T15:38:15;2.85;;;1.27;;
68757;SDS011;55747;51.998;4.466;2023-03-16T15:40:44;4.90;;;1.30;;
68757;SDS011;55747;51.998;4.466;2023-03-16T15:43:12;2.60;;;1.20;;
68757;SDS011;55747;51.998;4.466;2023-03-16T15:45:38;4.47;;;1.45;;
68757;SDS011;55747;51.998;4.466;2023-03-16T15:48:04;4.35;;;1.42;;
68757;SDS011;55747;51.998;4.466;2023-03-16T15:50:29;3.05;;;1.33;;
68757;SDS011;55747;51.998;4.466;2023-03-16T15:52:59;2.85;;;1.27;;
68757;SDS011;55747;51.998;4.466;2023-03-16T15:58:04;3.85;;;1.20;;
68757;SDS011;55747;51.998;4.466;2023-03-16T16:00:30;4.93;;;1.25;;
68757;SDS011;55747;51.998;4.466;2023-03-16T16:02:58;2.47;;;1.10;;
68757;SDS011;55747;51.998;4.466;2023-03-16T16:05:25;2.58;;;1.08;;
68757;SDS011;55747;51.998;4.466;2023-03-16T16:07:52;2.35;;;1.30;;
68757;SDS011;55747;51.998;4.466;2023-03-16T16:10:21;3.45;;;1.17;;
68757;SDS011;55747;51.998;4.466;2023-03-16T16:12:48;3.22;;;1.13;;
68757;SDS011;55747;51.998;4.466;2023-03-16T16:15:18;2.35;;;1.20;;
68757;SDS011;55747;51.998;4.466;2023-03-16T16:17:58;4.20;;;1.30;;
68757;SDS011;55747;51.998;4.466;2023-03-16T16:20:25;4.28;;;1.70;;
68757;SDS011;55747;51.998;4.466;2023-03-16T16:22:52;5.10;;;1.20;;